createdAt,value
2023-12-31T00:01:34.818Z,78.53
2023-12-31T00:03:37.922Z,74.65
2023-12-31T00:05:46.728Z,75.35
2023-12-31T00:07:48.426Z,82.97
2023-12-31T00:09:50.161Z,70.53
2023-12-31T00:11:51.688Z,82.77
2023-12-31T00:13:53.205Z,77.20
2023-12-31T00:15:54.855Z,83.43
2023-12-31T00:17:56.555Z,78.57
2023-12-31T00:19:58.255Z,82.17
2023-12-31T00:21:59.947Z,78.30
2023-12-31T00:24:01.503Z,70.73
2023-12-31T00:26:03.101Z,74.43
2023-12-31T00:28:04.737Z,82.87
2023-12-31T00:30:06.612Z,73.97
2023-12-31T00:32:08.181Z,64.43
2023-12-31T00:34:11.750Z,70.68
2023-12-31T00:36:13.381Z,71.57
2023-12-31T00:38:14.968Z,73.15
2023-12-31T00:40:16.608Z,71.07
2023-12-31T00:42:18.195Z,74.33
2023-12-31T00:44:19.747Z,67.70
2023-12-31T00:46:21.368Z,69.72
2023-12-31T00:48:23.029Z,66.60
2023-12-31T00:50:24.810Z,69.18
2023-12-31T00:52:26.424Z,66.63
2023-12-31T00:54:28.228Z,67.47
2023-12-31T00:56:29.844Z,73.55
2023-12-31T00:58:31.495Z,73.77
2023-12-31T01:00:33.164Z,73.90
2023-12-31T01:02:34.736Z,72.13
2023-12-31T01:04:36.734Z,76.80
2023-12-31T01:06:38.298Z,76.35
2023-12-31T01:08:39.856Z,70.35
2023-12-31T01:10:41.494Z,73.97
2023-12-31T01:12:43.061Z,72.35
2023-12-31T01:14:45.693Z,68.88
2023-12-31T01:16:47.285Z,71.03
2023-12-31T01:18:48.932Z,66.30
2023-12-31T01:20:50.626Z,63.17
2023-12-31T01:22:52.322Z,64.97
2023-12-31T01:24:53.941Z,67.17
2023-12-31T01:26:55.573Z,73.07
2023-12-31T01:28:57.147Z,67.23
2023-12-31T01:30:58.744Z,65.05
2023-12-31T01:33:00.397Z,65.87
2023-12-31T01:35:04.389Z,70.32
2023-12-31T01:37:07.132Z,64.32
2023-12-31T01:39:08.754Z,59.33
2023-12-31T01:41:10.446Z,65.67
2023-12-31T01:43:12.017Z,63.63
2023-12-31T01:45:13.592Z,65.70
2023-12-31T01:47:16.324Z,63.45
2023-12-31T01:49:18.811Z,61.67
2023-12-31T01:53:21.931Z,67.28
2023-12-31T01:55:23.800Z,68.03
2023-12-31T01:57:28.469Z,66.10
2023-12-31T01:59:30.055Z,72.03
2023-12-31T02:01:32.389Z,74.65
2023-12-31T02:03:34.874Z,68.53
2023-12-31T02:05:37.764Z,74.32
2023-12-31T02:07:39.468Z,73.05
2023-12-31T02:09:41.226Z,71.50
2023-12-31T02:11:42.888Z,69.38
2023-12-31T02:13:44.620Z,69.53
2023-12-31T02:15:46.216Z,68.13
2023-12-31T02:17:47.859Z,65.82
2023-12-31T02:19:49.711Z,70.00
2023-12-31T02:21:51.420Z,70.53
2023-12-31T02:23:53.269Z,68.70
2023-12-31T02:26:04.913Z,70.10
2023-12-31T02:28:09.037Z,68.47
2023-12-31T02:30:11.362Z,68.50
2023-12-31T02:32:12.954Z,63.05
2023-12-31T02:34:14.553Z,63.03
2023-12-31T02:36:16.193Z,61.87
2023-12-31T02:38:17.867Z,63.30
2023-12-31T02:40:19.979Z,65.13
2023-12-31T02:42:21.656Z,61.75
2023-12-31T02:44:23.225Z,63.00
2023-12-31T02:46:24.879Z,61.58
2023-12-31T02:48:26.557Z,62.17
2023-12-31T02:50:28.209Z,62.22
2023-12-31T02:52:29.815Z,63.47
2023-12-31T02:54:31.538Z,62.20
2023-12-31T02:56:39.545Z,64.78
2023-12-31T02:58:41.155Z,66.25
2023-12-31T03:00:42.841Z,71.73
2023-12-31T03:02:44.469Z,65.28
2023-12-31T03:04:46.093Z,63.70
2023-12-31T03:06:52.617Z,68.20
2023-12-31T03:08:56.572Z,79.78
2023-12-31T03:10:58.449Z,69.68
2023-12-31T03:13:00.053Z,68.63
2023-12-31T03:15:01.788Z,70.50
2023-12-31T03:17:04.526Z,74.13
2023-12-31T03:19:06.102Z,67.68
2023-12-31T03:21:14.070Z,68.03
2023-12-31T03:23:16.194Z,72.07
2023-12-31T03:25:17.906Z,74.40
2023-12-31T03:27:19.486Z,67.35
2023-12-31T03:29:21.044Z,73.33
2023-12-31T03:31:22.821Z,68.65
2023-12-31T03:33:24.536Z,64.75
2023-12-31T03:35:26.160Z,67.85
2023-12-31T03:37:28.534Z,76.07
2023-12-31T03:39:30.119Z,81.47
2023-12-31T03:41:31.751Z,71.82
2023-12-31T03:43:33.316Z,75.87
2023-12-31T03:45:34.900Z,74.50
2023-12-31T03:47:37.005Z,82.45
2023-12-31T03:49:38.780Z,77.07
2023-12-31T03:51:40.498Z,75.03
2023-12-31T03:53:42.434Z,74.87
2023-12-31T03:55:44.090Z,70.70
2023-12-31T03:57:45.700Z,68.73
2023-12-31T03:59:47.687Z,75.25
2023-12-31T04:01:51.103Z,73.03
2023-12-31T04:03:52.755Z,72.53
2023-12-31T04:05:54.607Z,73.00
2023-12-31T04:07:56.525Z,70.47
2023-12-31T04:09:58.165Z,71.80
2023-12-31T04:11:59.780Z,69.47
2023-12-31T04:14:01.313Z,75.77
2023-12-31T04:16:02.879Z,71.60
2023-12-31T04:18:04.661Z,72.85
2023-12-31T04:20:07.093Z,72.32
2023-12-31T04:22:08.658Z,73.35
2023-12-31T04:24:11.117Z,63.28
2023-12-31T04:26:12.683Z,68.50
2023-12-31T04:28:14.301Z,75.93
2023-12-31T04:30:16.065Z,72.37
2023-12-31T04:32:17.617Z,72.23
2023-12-31T04:34:19.222Z,68.88
2023-12-31T04:36:20.748Z,72.33
2023-12-31T04:38:22.321Z,66.53
2023-12-31T04:40:23.950Z,67.88
2023-12-31T04:42:25.552Z,77.20
2023-12-31T04:44:27.078Z,75.57
2023-12-31T04:46:28.686Z,65.70
2023-12-31T04:48:30.287Z,69.03
2023-12-31T04:50:31.997Z,69.87
2023-12-31T04:52:33.820Z,67.47
2023-12-31T04:54:35.803Z,71.60
2023-12-31T04:56:39.226Z,68.13
2023-12-31T04:58:40.961Z,67.50
2023-12-31T05:00:42.743Z,65.43
2023-12-31T05:02:44.277Z,66.28
2023-12-31T05:04:45.941Z,67.20
2023-12-31T05:06:47.986Z,67.80
2023-12-31T05:08:49.563Z,69.13
2023-12-31T05:10:51.254Z,64.38
2023-12-31T05:12:52.827Z,65.40
2023-12-31T05:14:54.549Z,63.53
2023-12-31T05:16:56.290Z,65.65
2023-12-31T05:18:57.983Z,62.60
2023-12-31T05:21:00.438Z,60.23
2023-12-31T05:23:02.178Z,59.83
2023-12-31T05:25:04.005Z,64.97
2023-12-31T05:27:05.707Z,66.50
2023-12-31T05:29:07.468Z,58.10
2023-12-31T05:31:09.163Z,58.88
2023-12-31T05:33:13.883Z,56.00
2023-12-31T05:35:15.501Z,57.15
2023-12-31T05:37:17.133Z,61.47
2023-12-31T05:39:19.052Z,57.03
2023-12-31T05:41:20.780Z,54.60
2023-12-31T05:43:22.426Z,59.53
2023-12-31T05:45:24.037Z,60.88
2023-12-31T05:47:45.010Z,58.13
2023-12-31T05:49:47.271Z,63.20
2023-12-31T05:51:49.305Z,58.75
2023-12-31T05:53:50.927Z,55.55
2023-12-31T05:55:53.063Z,45.95
2023-12-31T05:57:54.718Z,51.90
2023-12-31T05:59:56.372Z,53.95
2023-12-31T06:01:57.966Z,51.63
2023-12-31T06:03:59.729Z,57.30
2023-12-31T06:06:01.489Z,55.78
2023-12-31T06:08:03.217Z,51.97
2023-12-31T06:10:05.070Z,54.50
2023-12-31T06:12:06.732Z,64.25
2023-12-31T06:14:08.393Z,59.67
2023-12-31T06:16:09.937Z,63.75
2023-12-31T06:18:12.323Z,63.60
2023-12-31T06:20:13.982Z,62.63
2023-12-31T06:22:15.624Z,61.07
2023-12-31T06:24:17.195Z,57.73
2023-12-31T06:26:18.786Z,53.03
2023-12-31T06:28:20.369Z,52.53
2023-12-31T06:30:22.072Z,52.93
2023-12-31T06:32:23.762Z,57.30
2023-12-31T06:34:25.518Z,54.93
2023-12-31T06:36:27.094Z,56.40
2023-12-31T06:38:28.910Z,54.65
2023-12-31T06:40:30.508Z,52.97
2023-12-31T06:42:32.285Z,51.60
2023-12-31T06:44:33.970Z,53.88
2023-12-31T06:46:35.618Z,52.83
2023-12-31T06:48:37.396Z,49.97
2023-12-31T06:50:38.964Z,52.85
2023-12-31T06:52:40.577Z,55.53
2023-12-31T06:54:42.800Z,52.47
2023-12-31T06:56:44.373Z,50.03
2023-12-31T06:58:45.978Z,50.90
2023-12-31T07:00:47.633Z,48.30
2023-12-31T07:02:49.233Z,51.92
2023-12-31T07:04:51.108Z,51.28
2023-12-31T07:06:52.740Z,48.03
2023-12-31T07:08:54.273Z,46.67
2023-12-31T07:10:55.956Z,49.45
2023-12-31T07:12:57.630Z,46.33
2023-12-31T07:14:59.202Z,47.40
2023-12-31T07:17:00.862Z,41.78
2023-12-31T07:19:02.584Z,45.37
2023-12-31T07:21:05.278Z,45.55
2023-12-31T07:23:07.211Z,45.03
2023-12-31T07:25:08.980Z,45.72
2023-12-31T07:27:10.593Z,45.27
2023-12-31T07:29:12.263Z,44.05
2023-12-31T07:31:13.908Z,42.55
2023-12-31T07:33:15.561Z,41.30
2023-12-31T07:35:17.734Z,42.87
2023-12-31T07:37:19.742Z,42.35
2023-12-31T07:39:21.327Z,40.38
2023-12-31T07:41:22.900Z,42.55
2023-12-31T07:43:24.482Z,45.13
2023-12-31T07:45:26.450Z,46.90
2023-12-31T07:47:27.997Z,43.38
2023-12-31T07:49:29.667Z,41.67
2023-12-31T07:51:31.325Z,42.20
2023-12-31T07:53:32.886Z,44.60
2023-12-31T07:55:34.795Z,42.40
2023-12-31T07:57:36.623Z,44.22
2023-12-31T07:59:39.644Z,41.72
2023-12-31T08:01:41.241Z,41.58
2023-12-31T08:03:42.905Z,43.63
2023-12-31T08:05:44.609Z,42.10
2023-12-31T08:07:46.245Z,41.65
2023-12-31T08:09:47.985Z,39.97
2023-12-31T08:11:49.669Z,41.20
2023-12-31T08:13:51.322Z,43.65
2023-12-31T08:15:55.111Z,43.28
2023-12-31T08:17:57.123Z,41.40
2023-12-31T08:19:58.856Z,44.35
2023-12-31T08:22:00.580Z,42.23
2023-12-31T08:24:02.250Z,40.08
2023-12-31T08:26:05.000Z,43.80
2023-12-31T08:28:06.714Z,43.38
2023-12-31T08:30:08.799Z,43.43
2023-12-31T08:32:10.643Z,44.28
2023-12-31T08:34:12.368Z,44.00
2023-12-31T08:36:14.075Z,42.40
2023-12-31T08:38:16.094Z,42.88
2023-12-31T08:40:20.524Z,41.20
2023-12-31T08:42:22.271Z,42.33
2023-12-31T08:44:23.809Z,42.10
2023-12-31T08:46:25.387Z,44.40
2023-12-31T08:48:27.026Z,43.47
2023-12-31T08:50:30.427Z,44.93
2023-12-31T08:52:32.080Z,43.08
2023-12-31T08:54:34.475Z,46.40
2023-12-31T08:56:36.030Z,43.67
2023-12-31T08:58:37.728Z,42.85
2023-12-31T09:00:39.706Z,42.65
2023-12-31T09:02:41.383Z,45.10
2023-12-31T09:04:43.030Z,45.30
2023-12-31T09:06:45.944Z,42.50
2023-12-31T09:08:47.889Z,42.92
2023-12-31T09:10:49.610Z,43.53
2023-12-31T09:12:53.542Z,41.30
2023-12-31T09:14:55.173Z,44.53
2023-12-31T09:16:56.777Z,39.80
2023-12-31T09:18:59.069Z,43.90
2023-12-31T09:21:00.675Z,43.08
2023-12-31T09:23:02.405Z,42.85
2023-12-31T09:25:07.433Z,43.15
2023-12-31T09:27:09.230Z,41.70
2023-12-31T09:29:10.877Z,41.90
2023-12-31T09:31:12.562Z,42.50
2023-12-31T09:33:14.454Z,46.03
2023-12-31T09:35:16.097Z,44.13
2023-12-31T09:37:20.303Z,43.15
2023-12-31T09:39:21.989Z,42.55
2023-12-31T09:41:27.206Z,41.15
2023-12-31T09:43:29.332Z,42.35
2023-12-31T09:45:31.796Z,43.88
2023-12-31T09:47:34.846Z,41.10
2023-12-31T09:49:37.319Z,40.58
2023-12-31T09:51:39.043Z,45.40
2023-12-31T09:53:41.205Z,41.63
2023-12-31T09:55:42.989Z,43.00
2023-12-31T09:57:45.379Z,41.75
2023-12-31T09:59:49.938Z,43.35
2023-12-31T10:01:54.854Z,40.67
2023-12-31T10:03:57.121Z,41.40
2023-12-31T10:06:00.455Z,42.33
2023-12-31T10:08:05.095Z,43.45
2023-12-31T10:10:08.578Z,39.67
2023-12-31T10:12:10.187Z,41.03
2023-12-31T10:14:12.846Z,41.40
2023-12-31T10:16:14.871Z,40.50
2023-12-31T10:18:16.660Z,40.80
2023-12-31T10:20:20.754Z,41.22
2023-12-31T10:22:23.070Z,38.13
2023-12-31T10:24:29.109Z,40.50
2023-12-31T10:26:31.280Z,39.85
2023-12-31T10:28:33.019Z,42.08
2023-12-31T10:30:34.772Z,41.90
2023-12-31T10:32:36.390Z,40.25
2023-12-31T10:34:38.135Z,39.47
2023-12-31T10:36:40.872Z,42.30
2023-12-31T10:38:47.522Z,40.78
2023-12-31T10:40:49.383Z,43.78
2023-12-31T10:42:56.670Z,43.20
2023-12-31T10:44:59.167Z,39.75
2023-12-31T10:49:05.602Z,41.63
2023-12-31T10:51:09.393Z,40.97
2023-12-31T10:53:12.023Z,41.33
2023-12-31T10:55:14.608Z,43.72
2023-12-31T10:59:19.816Z,41.78
2023-12-31T11:01:25.714Z,41.10
2023-12-31T11:03:29.008Z,39.38
2023-12-31T11:05:31.882Z,39.90
2023-12-31T11:07:35.379Z,41.10
2023-12-31T11:09:37.199Z,41.28
2023-12-31T11:11:38.927Z,40.05
2023-12-31T11:13:42.284Z,40.40
2023-12-31T11:15:45.239Z,39.45
2023-12-31T11:17:47.030Z,39.03
2023-12-31T11:20:01.006Z,39.53
2023-12-31T11:22:11.901Z,38.30
2023-12-31T11:24:15.331Z,39.47
2023-12-31T11:26:18.610Z,37.15
2023-12-31T11:28:20.321Z,42.13
2023-12-31T11:30:40.518Z,41.08
2023-12-31T11:32:42.228Z,43.40
2023-12-31T11:34:44.002Z,43.10
2023-12-31T11:36:45.589Z,41.20
2023-12-31T11:39:03.889Z,41.65
2023-12-31T11:41:05.555Z,38.83
2023-12-31T11:43:16.738Z,40.90
2023-12-31T11:45:47.689Z,40.53
2023-12-31T11:47:49.362Z,40.72
2023-12-31T11:49:54.685Z,42.83
2023-12-31T11:52:00.227Z,39.88
2023-12-31T11:54:04.010Z,42.85
2023-12-31T11:56:05.958Z,41.38
2023-12-31T11:58:09.367Z,43.47
2023-12-31T12:00:12.572Z,41.90
2023-12-31T12:02:15.472Z,42.35
2023-12-31T12:04:17.138Z,42.33
2023-12-31T12:06:18.914Z,44.60
2023-12-31T12:08:20.682Z,44.45
2023-12-31T12:10:22.933Z,42.70
2023-12-31T12:12:24.900Z,43.45
2023-12-31T12:14:26.812Z,45.55
2023-12-31T12:16:29.833Z,43.90
2023-12-31T12:18:31.498Z,44.53
2023-12-31T12:20:35.515Z,45.42
2023-12-31T12:22:38.736Z,44.28
2023-12-31T12:24:41.463Z,43.90
2023-12-31T12:26:43.442Z,46.10
2023-12-31T12:28:47.422Z,44.70
2023-12-31T12:30:49.720Z,45.47
2023-12-31T12:32:51.422Z,44.17
2023-12-31T12:34:53.131Z,44.90
2023-12-31T12:36:57.636Z,47.63
2023-12-31T12:39:04.251Z,44.95
2023-12-31T12:41:06.726Z,46.90
2023-12-31T12:43:08.348Z,47.33
2023-12-31T12:45:10.767Z,47.35
2023-12-31T12:47:12.422Z,46.70
2023-12-31T12:49:14.428Z,48.53
2023-12-31T12:51:16.346Z,45.75
2023-12-31T12:53:18.013Z,48.40
2023-12-31T12:55:19.633Z,44.20
2023-12-31T12:57:21.225Z,46.23
2023-12-31T12:59:22.791Z,46.53
2023-12-31T13:01:24.866Z,45.92
2023-12-31T13:03:26.582Z,48.03
2023-12-31T13:05:28.269Z,48.15
2023-12-31T13:07:29.872Z,50.13
2023-12-31T13:09:31.769Z,47.23
2023-12-31T13:11:33.581Z,49.45
2023-12-31T13:13:35.127Z,50.50
2023-12-31T13:15:36.776Z,48.00
2023-12-31T13:17:38.495Z,48.58
2023-12-31T13:19:40.280Z,50.25
2023-12-31T13:21:41.893Z,50.47
2023-12-31T13:23:44.279Z,51.90
2023-12-31T13:25:45.875Z,49.95
2023-12-31T13:27:47.433Z,51.03
2023-12-31T13:29:48.998Z,50.00
2023-12-31T13:31:51.042Z,50.10
2023-12-31T13:33:52.831Z,49.05
2023-12-31T13:35:54.714Z,49.85
2023-12-31T13:37:56.538Z,48.03
2023-12-31T13:39:58.886Z,50.30
2023-12-31T13:42:00.530Z,51.00
2023-12-31T13:44:02.288Z,53.10
2023-12-31T13:46:04.682Z,49.95
2023-12-31T13:48:06.558Z,48.33
2023-12-31T13:50:08.826Z,46.60
2023-12-31T13:52:11.422Z,48.47
2023-12-31T13:56:14.646Z,47.38
2023-12-31T13:58:16.223Z,51.22
2023-12-31T14:00:17.883Z,48.90
2023-12-31T14:02:19.488Z,50.13
2023-12-31T14:04:21.197Z,50.90
2023-12-31T14:06:23.166Z,49.80
2023-12-31T14:08:24.935Z,47.83
2023-12-31T14:10:26.632Z,47.90
2023-12-31T14:12:28.311Z,48.63
2023-12-31T14:14:29.877Z,47.80
2023-12-31T14:16:31.549Z,49.00
2023-12-31T14:18:33.141Z,47.43
2023-12-31T14:20:34.927Z,47.63
2023-12-31T14:22:36.855Z,47.92
2023-12-31T14:24:38.566Z,46.15
2023-12-31T14:26:41.285Z,49.70
2023-12-31T14:28:42.866Z,48.25
2023-12-31T14:30:44.761Z,49.97
2023-12-31T14:32:46.468Z,50.00
2023-12-31T14:34:48.219Z,48.35
2023-12-31T14:36:49.884Z,46.23
2023-12-31T14:38:51.969Z,49.13
2023-12-31T14:40:53.582Z,48.15
2023-12-31T14:42:55.339Z,45.63
2023-12-31T14:44:56.906Z,45.53
2023-12-31T14:46:59.058Z,44.22
2023-12-31T14:49:04.088Z,46.22
2023-12-31T14:51:05.778Z,47.03
2023-12-31T14:53:07.716Z,47.07
2023-12-31T14:55:10.292Z,47.67
2023-12-31T14:59:13.460Z,49.10
2023-12-31T15:01:15.122Z,46.13
2023-12-31T15:03:16.758Z,47.90
2023-12-31T15:05:19.065Z,47.23
2023-12-31T15:09:22.857Z,45.72
2023-12-31T15:11:34.854Z,47.50
2023-12-31T15:13:38.825Z,47.63
2023-12-31T15:15:40.435Z,45.60
2023-12-31T15:17:42.296Z,46.73
2023-12-31T15:19:43.942Z,45.17
2023-12-31T15:21:45.692Z,46.43
2023-12-31T15:23:47.493Z,48.20
2023-12-31T15:25:52.178Z,46.10
2023-12-31T15:27:53.835Z,47.17
2023-12-31T15:29:55.582Z,45.90
2023-12-31T15:31:57.346Z,49.05
2023-12-31T15:33:58.980Z,52.00
2023-12-31T15:36:00.605Z,47.57
2023-12-31T15:38:03.506Z,42.50
2023-12-31T15:40:06.118Z,45.42
2023-12-31T15:44:10.951Z,46.15
2023-12-31T15:46:13.574Z,44.67
2023-12-31T15:48:15.326Z,44.05
2023-12-31T15:50:17.062Z,44.70
2023-12-31T15:52:18.667Z,40.23
2023-12-31T15:54:20.251Z,44.05
2023-12-31T15:56:21.843Z,45.30
2023-12-31T15:58:23.508Z,45.80
2023-12-31T16:00:25.214Z,40.38
2023-12-31T16:02:26.801Z,35.65
2023-12-31T16:04:28.497Z,40.20
2023-12-31T16:06:30.323Z,42.95
2023-12-31T16:08:31.942Z,40.25
2023-12-31T16:10:33.644Z,41.23
2023-12-31T16:12:35.261Z,39.63
2023-12-31T16:14:36.879Z,41.13
2023-12-31T16:16:38.727Z,39.37
2023-12-31T16:18:40.519Z,40.85
2023-12-31T16:20:42.310Z,40.38
2023-12-31T16:22:44.480Z,37.10
2023-12-31T16:24:46.192Z,37.33
2023-12-31T16:26:47.750Z,37.87
2023-12-31T16:28:50.046Z,35.90
2023-12-31T16:30:51.992Z,40.40
2023-12-31T16:32:53.590Z,37.03
2023-12-31T16:34:55.299Z,36.85
2023-12-31T16:36:56.851Z,38.53
2023-12-31T16:38:58.520Z,36.35
2023-12-31T16:41:00.282Z,38.63
2023-12-31T16:43:05.639Z,38.42
2023-12-31T16:45:08.816Z,33.60
2023-12-31T16:47:10.741Z,37.80
2023-12-31T16:49:12.569Z,37.10
2023-12-31T16:51:14.309Z,36.55
2023-12-31T16:53:16.379Z,35.00
2023-12-31T16:55:18.625Z,37.00
2023-12-31T16:57:20.198Z,35.28
2023-12-31T16:59:21.840Z,35.13
2023-12-31T17:01:24.852Z,36.73
2023-12-31T17:03:26.679Z,34.15
2023-12-31T17:05:29.410Z,35.35
2023-12-31T17:07:31.057Z,35.08
2023-12-31T17:09:32.631Z,34.77
2023-12-31T17:11:35.309Z,36.27
2023-12-31T17:13:37.097Z,36.25
2023-12-31T17:15:38.686Z,38.75
2023-12-31T17:17:40.589Z,36.13
2023-12-31T17:19:42.534Z,34.88
2023-12-31T17:21:44.266Z,34.88
2023-12-31T17:23:45.859Z,33.40
2023-12-31T17:25:47.437Z,34.50
2023-12-31T17:27:51.644Z,35.93
2023-12-31T17:29:53.347Z,37.08
2023-12-31T17:31:55.088Z,32.40
2023-12-31T17:33:56.691Z,33.75
2023-12-31T17:36:01.141Z,32.50
2023-12-31T17:38:02.923Z,33.60
2023-12-31T17:40:05.052Z,34.42
2023-12-31T17:42:06.745Z,33.55
2023-12-31T17:44:08.441Z,34.17
2023-12-31T17:46:10.087Z,36.80
2023-12-31T17:48:11.937Z,32.30
2023-12-31T17:50:13.782Z,32.45
2023-12-31T17:52:15.436Z,33.95
2023-12-31T17:54:17.039Z,32.47
2023-12-31T17:56:18.647Z,30.58
2023-12-31T17:58:20.238Z,30.13
2023-12-31T18:00:21.895Z,33.07
2023-12-31T18:02:25.625Z,32.97
2023-12-31T18:04:27.257Z,33.28
2023-12-31T18:06:28.872Z,35.03
2023-12-31T18:08:30.442Z,36.85
2023-12-31T18:10:32.014Z,35.40
2023-12-31T18:12:33.650Z,41.67
2023-12-31T18:14:36.389Z,39.87
2023-12-31T18:16:41.747Z,47.60
2023-12-31T18:18:43.415Z,38.53
2023-12-31T18:20:45.027Z,35.58
2023-12-31T18:22:48.087Z,37.90
2023-12-31T18:24:50.932Z,38.03
2023-12-31T18:26:52.524Z,36.10
2023-12-31T18:28:54.447Z,33.17
2023-12-31T18:30:56.298Z,34.88
2023-12-31T18:32:58.009Z,36.90
2023-12-31T18:34:59.714Z,34.17
2023-12-31T18:37:01.294Z,35.70
2023-12-31T18:39:03.584Z,34.13
2023-12-31T18:41:05.202Z,37.00
2023-12-31T18:43:06.810Z,37.50
2023-12-31T18:45:08.663Z,34.67
2023-12-31T18:47:10.335Z,34.08
2023-12-31T18:49:12.040Z,35.92
2023-12-31T18:51:15.844Z,33.30
2023-12-31T18:53:17.510Z,40.38
2023-12-31T18:55:19.214Z,36.97
2023-12-31T18:57:21.834Z,35.85
2023-12-31T19:01:25.602Z,38.38
2023-12-31T19:03:27.288Z,37.95
2023-12-31T19:05:29.294Z,34.57
2023-12-31T19:07:31.024Z,37.53
2023-12-31T19:09:32.671Z,35.22
2023-12-31T19:11:34.469Z,35.08
2023-12-31T19:13:36.116Z,36.83
2023-12-31T19:15:37.719Z,32.08
2023-12-31T19:17:40.092Z,32.73
2023-12-31T19:21:45.580Z,35.58
2023-12-31T19:23:47.185Z,34.97
2023-12-31T19:25:48.809Z,36.97
2023-12-31T19:27:50.971Z,34.00
2023-12-31T19:29:52.596Z,33.25
2023-12-31T19:31:54.265Z,33.78
2023-12-31T19:33:55.986Z,32.10
2023-12-31T19:35:57.590Z,36.97
2023-12-31T19:37:59.185Z,37.23
2023-12-31T19:40:01.149Z,34.57
2023-12-31T19:42:02.841Z,34.80
2023-12-31T19:44:22.185Z,34.03
2023-12-31T19:46:26.688Z,34.92
2023-12-31T19:48:28.695Z,31.98
2023-12-31T19:50:30.396Z,32.38
2023-12-31T19:52:32.116Z,32.72
2023-12-31T19:54:33.744Z,30.90
2023-12-31T19:56:35.359Z,31.63
2023-12-31T19:58:38.765Z,34.08
2023-12-31T20:00:40.531Z,33.20
2023-12-31T20:02:43.112Z,31.73
2023-12-31T20:04:44.836Z,30.65
2023-12-31T20:06:46.460Z,32.38
2023-12-31T20:08:48.065Z,37.47
2023-12-31T20:10:52.350Z,33.50
2023-12-31T20:12:54.019Z,33.90
2023-12-31T20:14:55.613Z,33.50
2023-12-31T20:16:57.217Z,32.70
2023-12-31T20:18:58.904Z,29.67
2023-12-31T20:21:00.761Z,32.15
2023-12-31T20:23:03.683Z,34.20
2023-12-31T20:25:06.636Z,34.65
2023-12-31T20:27:08.322Z,30.90
2023-12-31T20:29:11.250Z,30.40
2023-12-31T20:31:14.184Z,33.85
2023-12-31T20:33:16.032Z,35.47
2023-12-31T20:35:17.715Z,32.03
2023-12-31T20:37:19.284Z,32.03
2023-12-31T20:39:20.862Z,34.08
2023-12-31T20:41:22.431Z,29.83
2023-12-31T20:43:23.970Z,38.60
2023-12-31T20:45:27.590Z,33.35
2023-12-31T20:47:29.303Z,27.15
2023-12-31T20:49:32.685Z,29.77
2023-12-31T20:51:34.437Z,29.63
2023-12-31T20:53:36.877Z,33.13
2023-12-31T20:55:38.519Z,33.25
2023-12-31T20:57:40.116Z,29.42
2023-12-31T20:59:44.736Z,30.00
2023-12-31T21:01:46.554Z,31.13
2023-12-31T21:03:48.195Z,30.45
2023-12-31T21:05:49.889Z,29.30
2023-12-31T21:07:51.743Z,32.03
2023-12-31T21:09:53.420Z,29.00
2023-12-31T21:11:55.142Z,27.00
2023-12-31T21:13:56.792Z,27.50
2023-12-31T21:16:00.053Z,29.20
2023-12-31T21:18:03.109Z,26.38
2023-12-31T21:20:05.315Z,27.20
2023-12-31T21:22:07.241Z,28.13
2023-12-31T21:24:12.641Z,29.08
2023-12-31T21:26:17.750Z,28.23
2023-12-31T21:28:20.222Z,28.75
2023-12-31T21:32:23.400Z,27.33
2023-12-31T21:34:24.992Z,28.75
2023-12-31T21:36:26.568Z,26.03
2023-12-31T21:38:28.133Z,31.50
2023-12-31T21:40:29.805Z,26.63
2023-12-31T21:42:31.460Z,26.45
2023-12-31T21:44:33.104Z,29.00
2023-12-31T21:46:36.592Z,25.77
2023-12-31T21:48:39.533Z,24.73
2023-12-31T21:50:42.214Z,25.30
2023-12-31T21:52:43.899Z,25.90
2023-12-31T21:54:45.485Z,27.30
2023-12-31T21:56:57.957Z,26.58
2023-12-31T21:59:04.124Z,25.58
2023-12-31T22:01:05.747Z,25.30
2023-12-31T22:03:07.455Z,26.30
2023-12-31T22:05:09.823Z,26.45
2023-12-31T22:07:12.907Z,24.50
2023-12-31T22:09:14.514Z,26.88
2023-12-31T22:11:16.363Z,27.73
2023-12-31T22:13:18.956Z,25.55
2023-12-31T22:15:21.768Z,28.45
2023-12-31T22:17:23.482Z,26.45
2023-12-31T22:19:25.196Z,28.45
2023-12-31T22:21:26.903Z,26.45
2023-12-31T22:23:29.324Z,27.10
2023-12-31T22:25:31.768Z,26.30
2023-12-31T22:27:33.394Z,25.90
2023-12-31T22:29:34.987Z,25.07
2023-12-31T22:31:36.557Z,27.00
2023-12-31T22:33:38.301Z,26.47
2023-12-31T22:35:39.946Z,25.13
2023-12-31T22:37:41.732Z,27.77
2023-12-31T22:39:43.288Z,26.67
2023-12-31T22:41:44.949Z,26.83
2023-12-31T22:43:46.593Z,26.23
2023-12-31T22:45:48.316Z,25.83
2023-12-31T22:47:50.033Z,27.57
2023-12-31T22:49:52.046Z,25.85
2023-12-31T22:51:53.693Z,25.38
2023-12-31T22:53:55.277Z,27.07
2023-12-31T22:55:56.873Z,26.27
2023-12-31T22:57:58.513Z,25.13
2023-12-31T23:00:00.082Z,27.17
2023-12-31T23:02:01.729Z,26.23
2023-12-31T23:04:03.509Z,24.30
2023-12-31T23:06:05.269Z,26.13
2023-12-31T23:08:07.205Z,25.92
2023-12-31T23:10:09.006Z,27.98
2023-12-31T23:12:10.569Z,29.50
2023-12-31T23:14:12.151Z,27.58
2023-12-31T23:16:14.871Z,27.73
2023-12-31T23:18:16.492Z,29.83
2023-12-31T23:20:18.283Z,29.75
2023-12-31T23:22:19.827Z,28.67
2023-12-31T23:24:21.757Z,26.75
2023-12-31T23:26:24.771Z,29.60
2023-12-31T23:28:26.983Z,26.58
2023-12-31T23:30:28.668Z,27.63
2023-12-31T23:32:30.367Z,26.10
2023-12-31T23:34:31.985Z,26.67
2023-12-31T23:36:33.669Z,26.83
2023-12-31T23:38:35.304Z,27.03
2023-12-31T23:40:37.019Z,28.17
2023-12-31T23:42:38.611Z,26.52
2023-12-31T23:44:40.454Z,26.97
2023-12-31T23:46:42.073Z,27.50
2023-12-31T23:48:43.724Z,26.33
2023-12-31T23:50:45.319Z,26.65
2023-12-31T23:52:46.932Z,27.23
2023-12-31T23:54:49.378Z,27.53
2023-12-31T23:56:50.922Z,26.67
2023-12-31T23:58:52.649Z,26.70
